Time;durP1;ratioP1;P1;durP2;ratioP2;P2;SDS_P1;SDS_P2;PMS_P1;PMS_P2;Temp;Humidity;BMP_temperature;BMP_pressure;BME280_temperature;BME280_humidity;BME280_pressure;Samples;Min_cycle;Max_cycle;Signal;HPM_P1;HPM_P2
2020/12/07 00:00:01;;;;;;;9.32;6.43;;;8.20;99.90;;;;;;4957702;28;20177;-79
2020/12/07 00:02:30;;;;;;;9.13;7.65;;;8.20;99.90;;;;;;4959868;28;20177;-79
2020/12/07 00:05:01;;;;;;;12.10;7.63;;;8.20;99.90;;;;;;4960991;28;20259;-77
2020/12/07 00:07:28;;;;;;;14.82;10.60;;;8.20;99.90;;;;;;4960318;28;20204;-78
2020/12/07 00:09:55;;;;;;;12.10;8.40;;;8.20;99.90;;;;;;4957923;28;20243;-77
2020/12/07 00:12:25;;;;;;;10.95;7.35;;;8.10;99.90;;;;;;4958524;28;20180;-76
2020/12/07 00:14:53;;;;;;;12.95;8.90;;;8.00;99.90;;;;;;4960356;29;20210;-79
2020/12/07 00:17:21;;;;;;;13.23;7.30;;;8.00;99.90;;;;;;4959369;29;20255;-78
2020/12/07 00:19:48;;;;;;;12.07;6.88;;;8.10;99.90;;;;;;4956672;28;20188;-78
2020/12/07 00:22:21;;;;;;;13.07;6.82;;;8.10;99.90;;;;;;4958484;28;20196;-79
2020/12/07 00:24:48;;;;;;;11.48;7.65;;;8.00;99.90;;;;;;4959154;28;20263;-80
2020/12/07 00:27:21;;;;;;;15.68;9.18;;;8.00;99.90;;;;;;4959903;29;20215;-77
2020/12/07 00:29:48;;;;;;;10.95;7.97;;;8.00;99.90;;;;;;4957913;28;20582;-79
2020/12/07 00:32:16;;;;;;;12.65;7.88;;;8.00;99.90;;;;;;4959645;28;20271;-79
2020/12/07 00:34:43;;;;;;;8.85;7.35;;;8.00;99.90;;;;;;4960688;28;20607;-78
2020/12/07 00:37:12;;;;;;;11.00;7.63;;;8.00;99.90;;;;;;4956971;29;20283;-77
2020/12/07 00:39:39;;;;;;;12.23;8.02;;;8.00;99.90;;;;;;4958106;28;20254;-76
2020/12/07 00:42:09;;;;;;;9.27;7.63;;;7.90;99.90;;;;;;4959635;28;20184;-78
2020/12/07 00:44:36;;;;;;;14.40;8.02;;;7.90;99.90;;;;;;4959519;28;20252;-78
2020/12/07 00:47:05;;;;;;;13.88;9.40;;;7.90;99.90;;;;;;4959567;28;20235;-78
2020/12/07 00:49:33;;;;;;;14.20;8.57;;;8.00;99.90;;;;;;4957467;29;20258;-77
2020/12/07 00:52:02;;;;;;;8.30;5.63;;;8.00;99.90;;;;;;4960005;28;20203;-77
2020/12/07 00:54:29;;;;;;;13.13;7.68;;;8.00;99.90;;;;;;4959117;28;20212;-78
2020/12/07 00:56:59;;;;;;;12.00;7.65;;;8.00;99.90;;;;;;4955909;28;20226;-77
2020/12/07 00:59:31;;;;;;;11.73;7.60;;;8.00;99.90;;;;;;4955060;29;20191;-77
2020/12/07 01:02:02;;;;;;;12.80;8.63;;;8.00;99.90;;;;;;4955083;29;20250;-76
2020/12/07 01:04:29;;;;;;;11.07;6.97;;;8.10;99.90;;;;;;4954774;29;20203;-78
2020/12/07 01:07:01;;;;;;;10.95;5.78;;;8.10;99.90;;;;;;4954581;29;20573;-77
2020/12/07 01:09:29;;;;;;;14.23;7.32;;;8.20;99.90;;;;;;4956146;28;20719;-77
2020/12/07 01:12:00;;;;;;;10.80;7.88;;;8.30;99.90;;;;;;4954686;28;20207;-77
2020/12/07 01:14:36;;;;;;;8.35;6.40;;;8.30;99.90;;;;;;4954999;28;20275;-77
2020/12/07 01:17:05;;;;;;;12.13;7.97;;;8.30;99.90;;;;;;4954866;28;20223;-78
2020/12/07 01:19:33;;;;;;;11.02;7.85;;;8.30;99.90;;;;;;4974306;28;20192;-77
2020/12/07 01:22:03;;;;;;;12.52;7.07;;;8.30;99.90;;;;;;4958322;28;20188;-79
2020/12/07 01:24:31;;;;;;;10.18;7.25;;;8.30;99.90;;;;;;4956024;29;20199;-77
2020/12/07 01:27:00;;;;;;;8.98;8.00;;;8.30;99.90;;;;;;4955241;28;20231;-77
2020/12/07 01:29:28;;;;;;;14.18;7.20;;;8.30;99.90;;;;;;4956151;28;20196;-79
2020/12/07 01:31:56;;;;;;;12.27;7.00;;;8.20;99.90;;;;;;4959946;28;20255;-77
2020/12/07 01:34:23;;;;;;;10.25;6.38;;;8.10;99.90;;;;;;4956082;29;20275;-76
2020/12/07 01:36:50;;;;;;;15.23;8.38;;;8.10;99.90;;;;;;4956671;28;20631;-77
2020/12/07 01:39:18;;;;;;;10.75;6.35;;;8.10;99.90;;;;;;4955686;28;20196;-78
2020/12/07 01:41:46;;;;;;;14.75;8.63;;;8.00;99.90;;;;;;4954426;28;20284;-79
2020/12/07 01:44:16;;;;;;;11.57;8.05;;;7.90;99.90;;;;;;4954685;28;20198;-79
2020/12/07 01:46:44;;;;;;;18.27;9.80;;;7.80;99.90;;;;;;4954785;28;20219;-77
2020/12/07 01:49:12;;;;;;;22.48;9.32;;;7.80;99.90;;;;;;4954622;29;20389;-78
2020/12/07 01:51:40;;;;;;;16.00;8.27;;;7.70;99.90;;;;;;4957497;29;20223;-77
2020/12/07 01:54:11;;;;;;;10.95;8.60;;;7.70;99.90;;;;;;4958074;28;20228;-78
2020/12/07 01:56:43;;;;;;;10.27;7.80;;;7.60;99.90;;;;;;4957580;29;20220;-78
2020/12/07 01:59:14;;;;;;;10.70;8.30;;;7.60;99.90;;;;;;4957451;28;20710;-78
2020/12/07 02:01:44;;;;;;;11.30;7.72;;;7.50;99.90;;;;;;4956538;28;20628;-78
2020/12/07 02:04:12;;;;;;;19.40;8.07;;;7.50;99.90;;;;;;4955506;29;20292;-78
2020/12/07 02:06:39;;;;;;;10.85;7.38;;;7.50;99.90;;;;;;4957390;29;20216;-78
2020/12/07 02:09:09;;;;;;;13.55;8.60;;;7.50;99.90;;;;;;4954309;28;20265;-77
2020/12/07 02:12:08;;;;;;;13.88;7.65;;;7.50;99.90;;;;;;4954832;29;20264;-77
2020/12/07 02:14:36;;;;;;;14.52;8.50;;;7.50;99.90;;;;;;4954981;28;20251;-78
2020/12/07 02:17:04;;;;;;;10.50;8.00;;;7.50;99.90;;;;;;4954211;28;20216;-78
2020/12/07 02:19:33;;;;;;;15.93;8.60;;;7.60;99.90;;;;;;4954479;28;20672;-77
2020/12/07 02:22:02;;;;;;;13.88;8.88;;;7.60;99.90;;;;;;4955695;29;20224;-77
2020/12/07 02:25:03;;;;;;;10.57;7.68;;;7.70;99.90;;;;;;4955721;28;20210;-78
2020/12/07 02:27:33;;;;;;;8.82;5.32;;;7.70;99.90;;;;;;4958679;28;20913;-77
2020/12/07 02:30:01;;;;;;;13.50;7.80;;;7.60;99.90;;;;;;4966563;29;20212;-76
2020/12/07 02:32:29;;;;;;;9.82;8.40;;;7.60;99.90;;;;;;4967408;29;20558;-78
2020/12/07 02:35:08;;;;;;;13.23;8.32;;;7.60;99.90;;;;;;4966887;28;20231;-77
2020/12/07 02:37:45;;;;;;;21.70;9.77;;;7.60;99.90;;;;;;4969312;28;20219;-78
2020/12/07 02:40:15;;;;;;;20.55;7.65;;;7.50;99.90;;;;;;4963880;28;20220;-77
2020/12/07 02:42:43;;;;;;;10.15;7.40;;;7.50;99.90;;;;;;4954354;28;20200;-78
2020/12/07 02:45:17;;;;;;;12.55;9.15;;;7.50;99.90;;;;;;4955147;29;20184;-78
2020/12/07 02:47:54;;;;;;;10.75;8.10;;;7.60;99.90;;;;;;4954470;28;20192;-78
2020/12/07 02:50:21;;;;;;;14.02;9.55;;;7.50;99.90;;;;;;4954319;29;20582;-77
2020/12/07 02:52:49;;;;;;;9.35;7.68;;;7.50;99.90;;;;;;4956626;28;20199;-78
2020/12/07 02:55:16;;;;;;;11.65;6.97;;;7.60;99.90;;;;;;4958417;29;20208;-78
2020/12/07 02:57:47;;;;;;;14.43;7.35;;;7.60;99.90;;;;;;4957347;29;20275;-77
2020/12/07 03:00:19;;;;;;;11.25;7.40;;;7.60;99.90;;;;;;4956864;28;20287;-77
2020/12/07 03:02:47;;;;;;;10.05;7.63;;;7.60;99.90;;;;;;4957239;28;20196;-77
2020/12/07 03:05:20;;;;;;;10.43;8.75;;;7.60;99.90;;;;;;4956837;28;20247;-78
2020/12/07 03:07:47;;;;;;;15.35;9.65;;;7.60;99.90;;;;;;4957314;28;20251;-79
2020/12/07 03:10:17;;;;;;;12.10;8.10;;;7.60;99.90;;;;;;4958080;28;20287;-77
2020/12/07 03:12:46;;;;;;;13.65;9.38;;;7.70;99.90;;;;;;4958249;29;20606;-76
2020/12/07 03:15:17;;;;;;;10.95;6.72;;;7.70;99.90;;;;;;4959516;28;20208;-78
2020/12/07 03:17:46;;;;;;;16.15;9.20;;;7.80;99.90;;;;;;4961248;28;20295;-78
2020/12/07 03:20:15;;;;;;;14.35;8.60;;;7.80;99.90;;;;;;4964146;29;20667;-76
2020/12/07 03:22:43;;;;;;;14.82;9.20;;;7.90;99.90;;;;;;4973565;28;20231;-77
2020/12/07 03:25:10;;;;;;;11.18;7.38;;;7.90;99.90;;;;;;4979275;28;20173;-78
2020/12/07 03:27:42;;;;;;;18.45;9.23;;;7.90;99.90;;;;;;4978344;28;20212;-76
2020/12/07 03:30:10;;;;;;;13.57;7.28;;;8.00;99.90;;;;;;4978843;28;20255;-76
2020/12/07 03:32:37;;;;;;;9.93;7.93;;;8.00;99.90;;;;;;4980630;28;20253;-79
2020/12/07 03:35:04;;;;;;;9.70;6.32;;;8.00;99.90;;;;;;4970234;28;20208;-76
2020/12/07 03:37:32;;;;;;;8.98;7.68;;;8.00;99.90;;;;;;4963349;28;20240;-77
2020/12/07 03:40:01;;;;;;;14.48;8.68;;;8.00;99.90;;;;;;4961715;28;20192;-77
2020/12/07 03:42:36;;;;;;;13.00;7.00;;;8.00;99.90;;;;;;4963024;28;20207;-77
2020/12/07 03:45:06;;;;;;;8.00;6.97;;;8.00;99.90;;;;;;4963345;29;20802;-77
2020/12/07 03:47:34;;;;;;;11.70;10.15;;;8.00;99.90;;;;;;4963315;29;20695;-78
2020/12/07 03:50:03;;;;;;;18.02;8.00;;;8.00;99.90;;;;;;4961951;29;20223;-78
2020/12/07 03:52:32;;;;;;;17.75;9.18;;;7.90;99.90;;;;;;4964035;29;20219;-78
2020/12/07 03:55:05;;;;;;;13.52;8.55;;;7.90;99.90;;;;;;4963517;28;20291;-78
2020/12/07 03:57:32;;;;;;;13.43;8.35;;;7.90;99.90;;;;;;4964569;28;20284;-78
2020/12/07 04:00:00;;;;;;;9.35;6.80;;;7.90;99.90;;;;;;4962236;28;20196;-78
2020/12/07 04:02:29;;;;;;;14.70;7.65;;;7.90;99.90;;;;;;4961307;28;20200;-78
2020/12/07 04:05:01;;;;;;;10.77;7.05;;;7.90;99.90;;;;;;4961867;28;20215;-79
2020/12/07 04:07:30;;;;;;;17.08;7.47;;;7.90;99.90;;;;;;4959357;28;20227;-78
2020/12/07 04:09:58;;;;;;;12.27;8.27;;;7.80;99.90;;;;;;4960357;28;20192;-78
2020/12/07 04:12:25;;;;;;;11.00;7.85;;;7.80;99.90;;;;;;4961984;28;20202;-79
2020/12/07 04:14:52;;;;;;;10.18;7.78;;;7.80;99.90;;;;;;4960612;28;20215;-78
2020/12/07 04:17:20;;;;;;;10.38;8.02;;;7.80;99.90;;;;;;4960161;28;20216;-78
2020/12/07 04:19:48;;;;;;;9.80;7.35;;;7.80;99.90;;;;;;4959013;29;20247;-79
2020/12/07 04:22:15;;;;;;;15.75;9.55;;;7.70;99.90;;;;;;4960841;29;20284;-78
2020/12/07 04:24:42;;;;;;;12.80;7.43;;;7.70;99.90;;;;;;4959867;28;20249;-78
2020/12/07 04:27:09;;;;;;;9.75;7.35;;;7.70;99.90;;;;;;4958968;28;20229;-78
2020/12/07 04:29:36;;;;;;;7.38;6.57;;;7.70;99.90;;;;;;4958094;28;20283;-79
2020/12/07 04:32:03;;;;;;;8.88;6.68;;;7.70;99.90;;;;;;4958955;28;20177;-78
2020/12/07 04:34:30;;;;;;;11.13;6.43;;;7.60;99.90;;;;;;4960577;28;20303;-78
2020/12/07 04:36:59;;;;;;;8.77;7.82;;;7.60;99.90;;;;;;4956573;28;20271;-79
2020/12/07 04:39:26;;;;;;;9.82;6.57;;;7.60;99.90;;;;;;4955901;28;20193;-78
2020/12/07 04:41:53;;;;;;;8.70;6.10;;;7.60;99.90;;;;;;4957281;28;20187;-78
2020/12/07 04:44:20;;;;;;;12.90;7.70;;;7.60;99.90;;;;;;4958597;28;20545;-77
2020/12/07 04:46:48;;;;;;;15.05;7.82;;;7.60;99.90;;;;;;4955776;29;20332;-76
2020/12/07 04:49:17;;;;;;;14.00;7.65;;;7.60;99.90;;;;;;4955862;28;20278;-77
2020/12/07 04:51:44;;;;;;;17.73;7.53;;;7.60;99.90;;;;;;4955631;28;20255;-78
2020/12/07 04:54:15;;;;;;;13.13;7.70;;;7.50;99.90;;;;;;4957468;28;20204;-76
2020/12/07 04:56:42;;;;;;;7.05;4.88;;;7.50;99.90;;;;;;4956633;28;20220;-78
2020/12/07 04:59:10;;;;;;;11.65;8.00;;;7.50;99.90;;;;;;4955830;28;20271;-78
2020/12/07 05:01:38;;;;;;;11.27;8.15;;;7.40;99.90;;;;;;4957486;28;20274;-78
2020/12/07 05:04:05;;;;;;;11.95;7.50;;;7.40;99.90;;;;;;4960521;28;20180;-78
2020/12/07 05:06:58;;;;;;;12.02;10.48;;;7.40;99.90;;;;;;4960688;29;20665;-77
2020/12/07 05:09:30;;;;;;;9.73;6.00;;;7.40;99.90;;;;;;4957294;29;20603;-79
2020/12/07 05:12:01;;;;;;;11.60;7.28;;;7.40;99.90;;;;;;4959724;28;20180;-79
2020/12/07 05:14:29;;;;;;;8.30;6.93;;;7.30;99.90;;;;;;4961068;28;20236;-78
2020/12/07 05:16:57;;;;;;;14.23;9.98;;;7.30;99.90;;;;;;4964315;28;20212;-76
2020/12/07 05:19:24;;;;;;;15.00;9.35;;;7.30;99.90;;;;;;4962645;29;20294;-78
2020/12/07 05:21:51;;;;;;;14.00;10.57;;;7.30;99.90;;;;;;4963030;29;20196;-79
2020/12/07 05:24:18;;;;;;;11.63;7.35;;;7.30;99.90;;;;;;4961099;29;20251;-79
2020/12/07 05:26:47;;;;;;;8.40;7.15;;;7.30;99.90;;;;;;4974691;23;20280;-47
2020/12/07 05:29:31;;;;;;;13.40;9.00;;;7.30;99.90;;;;;;4934580;29;20200;-50
2020/12/07 05:31:59;;;;;;;7.90;6.18;;;7.30;99.90;;;;;;4934757;29;20224;-48
2020/12/07 05:34:26;;;;;;;14.15;8.63;;;7.30;99.90;;;;;;4933869;29;20247;-44
2020/12/07 05:36:55;;;;;;;16.65;7.82;;;7.30;99.90;;;;;;4934023;29;20193;-46
2020/12/07 05:39:24;;;;;;;10.43;7.10;;;7.30;99.90;;;;;;4934183;29;20199;-46
2020/12/07 05:41:55;;;;;;;11.18;7.00;;;7.20;99.90;;;;;;4934105;29;20183;-49
2020/12/07 05:44:24;;;;;;;10.80;7.40;;;7.30;99.90;;;;;;4932823;29;20205;-51
2020/12/07 05:46:55;;;;;;;12.52;7.90;;;7.20;99.90;;;;;;4934650;29;20185;-48
2020/12/07 05:49:23;;;;;;;10.68;8.65;;;7.10;99.90;;;;;;4935024;29;20634;-45
2020/12/07 05:51:59;;;;;;;12.18;8.13;;;7.10;99.90;;;;;;4934396;29;20188;-50
2020/12/07 05:54:28;;;;;;;13.52;9.18;;;7.10;99.90;;;;;;4934113;29;20218;-47
2020/12/07 05:57:08;;;;;;;11.73;8.18;;;7.10;99.90;;;;;;4934297;29;20212;-49
2020/12/07 05:59:40;;;;;;;18.98;9.85;;;7.10;99.90;;;;;;4934296;29;20184;-47
2020/12/07 06:02:10;;;;;;;7.78;6.70;;;7.10;99.90;;;;;;4934225;29;20173;-46
2020/12/07 06:04:37;;;;;;;13.50;8.52;;;7.00;99.90;;;;;;4934217;29;20299;-49
2020/12/07 06:07:06;;;;;;;11.65;8.18;;;7.00;99.90;;;;;;4934291;29;20537;-47
2020/12/07 06:09:37;;;;;;;9.82;7.78;;;6.90;99.90;;;;;;4934610;29;20185;-46
2020/12/07 06:12:09;;;;;;;9.98;8.60;;;6.90;99.90;;;;;;4935321;29;20706;-47
2020/12/07 06:14:38;;;;;;;10.85;7.60;;;6.90;99.90;;;;;;4934930;29;20224;-48
2020/12/07 06:17:06;;;;;;;16.17;9.25;;;6.90;99.90;;;;;;4935017;29;20819;-52
2020/12/07 06:19:33;;;;;;;12.13;7.43;;;6.90;99.90;;;;;;4934743;29;20177;-47
2020/12/07 06:22:02;;;;;;;7.40;6.25;;;6.90;99.90;;;;;;4934122;29;20240;-48
2020/12/07 06:24:40;;;;;;;14.90;9.10;;;6.90;99.90;;;;;;4933121;29;20184;-49
2020/12/07 06:27:09;;;;;;;10.27;7.28;;;6.90;99.90;;;;;;4936114;29;20200;-48
2020/12/07 06:29:37;;;;;;;13.90;8.80;;;6.90;99.90;;;;;;4936150;29;20220;-49
2020/12/07 06:32:04;;;;;;;16.20;8.30;;;6.80;99.90;;;;;;4935967;29;20236;-49
2020/12/07 06:34:40;;;;;;;12.13;7.32;;;6.80;99.90;;;;;;4937447;29;20435;-47
2020/12/07 06:37:08;;;;;;;12.00;6.88;;;6.80;99.90;;;;;;4938271;29;20169;-48
2020/12/07 06:39:43;;;;;;;11.65;8.88;;;6.80;99.90;;;;;;4937501;29;20239;-51
2020/12/07 06:42:13;;;;;;;16.40;9.52;;;6.80;99.90;;;;;;4937269;29;20231;-51
2020/12/07 06:44:44;;;;;;;8.38;7.60;;;6.80;99.90;;;;;;4937490;29;20212;-47
2020/12/07 06:47:17;;;;;;;13.05;7.28;;;6.80;99.90;;;;;;4938232;29;20181;-48
2020/12/07 06:49:52;;;;;;;14.55;8.60;;;6.70;99.90;;;;;;4937693;29;20204;-46
2020/12/07 06:52:21;;;;;;;9.68;7.32;;;6.70;99.90;;;;;;4937746;29;20185;-48
2020/12/07 06:55:05;;;;;;;14.10;10.35;;;6.60;99.90;;;;;;4936929;29;20248;-47
2020/12/07 06:57:39;;;;;;;13.85;8.90;;;6.60;99.90;;;;;;4937935;29;20185;-45
2020/12/07 07:00:09;;;;;;;12.65;7.60;;;6.60;99.90;;;;;;4918551;29;20180;-49
2020/12/07 07:02:38;;;;;;;13.05;7.07;;;6.60;99.90;;;;;;4918810;29;20185;-47
2020/12/07 07:05:06;;;;;;;12.20;7.32;;;6.60;99.90;;;;;;4918599;29;20216;-46
2020/12/07 07:07:33;;;;;;;13.07;6.68;;;6.60;99.90;;;;;;4932839;29;20256;-45
2020/12/07 07:10:00;;;;;;;12.80;8.77;;;6.60;99.90;;;;;;4936792;29;20181;-47
2020/12/07 07:12:28;;;;;;;10.82;6.78;;;6.60;99.90;;;;;;4937370;29;20217;-46
2020/12/07 07:14:57;;;;;;;12.18;7.25;;;6.60;99.90;;;;;;4936172;29;20213;-49
2020/12/07 07:17:26;;;;;;;13.10;7.00;;;6.60;99.90;;;;;;4947578;29;20243;-47
2020/12/07 07:19:54;;;;;;;12.57;7.20;;;6.60;99.90;;;;;;4941443;28;20283;-49
2020/12/07 07:22:22;;;;;;;9.07;6.60;;;6.60;99.90;;;;;;4936495;29;20185;-48
2020/12/07 07:24:55;;;;;;;16.30;8.40;;;6.60;99.90;;;;;;4937079;29;20209;-48
2020/12/07 07:30:08;;;;;;;10.57;7.78;;;6.60;99.90;;;;;;4936674;29;20192;-46
2020/12/07 07:32:35;;;;;;;14.55;8.77;;;6.60;99.90;;;;;;4936909;29;20185;-49
2020/12/07 07:35:03;;;;;;;13.88;10.15;;;6.60;99.90;;;;;;4936474;29;20348;-46
2020/12/07 07:37:30;;;;;;;13.38;8.80;;;6.60;99.90;;;;;;4935470;29;20192;-47
2020/12/07 07:40:02;;;;;;;10.70;7.07;;;6.60;99.90;;;;;;4936539;29;20176;-48
2020/12/07 07:42:30;;;;;;;13.98;9.88;;;6.60;99.90;;;;;;4936010;29;20216;-52
2020/12/07 07:44:58;;;;;;;10.65;8.32;;;6.60;99.90;;;;;;4936209;29;20205;-46
2020/12/07 07:47:29;;;;;;;14.40;9.95;;;6.60;99.90;;;;;;4936663;29;20201;-47
2020/12/07 08:18:09;;;;;;;10.68;8.65;;;6.70;99.90;;;;;;4936236;29;20185;-43
2020/12/07 08:20:49;;;;;;;13.65;7.07;;;6.70;99.90;;;;;;4935335;29;20181;-43
2020/12/07 08:23:17;;;;;;;12.27;7.95;;;6.80;99.90;;;;;;4936723;29;20189;-44
2020/12/07 08:25:46;;;;;;;11.10;7.43;;;6.80;99.90;;;;;;4936609;29;20264;-49
2020/12/07 08:28:18;;;;;;;12.20;8.18;;;6.80;99.90;;;;;;4935588;29;20224;-43
2020/12/07 08:31:05;;;;;;;11.05;6.68;;;6.90;99.90;;;;;;4936612;29;20192;-42
2020/12/07 08:33:35;;;;;;;8.90;6.97;;;6.80;99.90;;;;;;4936489;29;20176;-48
2020/12/07 08:36:06;;;;;;;10.52;7.50;;;6.80;99.90;;;;;;4936178;29;20216;-48
2020/12/07 08:38:36;;;;;;;9.27;8.38;;;6.90;99.90;;;;;;4936424;29;20201;-43
2020/12/07 08:41:11;;;;;;;11.65;7.70;;;6.90;99.90;;;;;;4936479;29;20523;-43
2020/12/07 08:43:43;;;;;;;8.73;7.50;;;6.90;99.90;;;;;;4936326;29;20181;-43
2020/12/07 08:46:12;;;;;;;10.93;7.35;;;6.90;99.90;;;;;;4935387;29;20213;-43
2020/12/07 08:48:40;;;;;;;16.38;10.07;;;7.00;99.90;;;;;;4935537;29;20224;-44
2020/12/07 08:51:09;;;;;;;12.30;9.05;;;7.00;99.90;;;;;;4936044;29;20197;-45
2020/12/07 08:53:37;;;;;;;11.80;8.18;;;7.00;99.90;;;;;;4934986;29;20192;-43
2020/12/07 08:56:05;;;;;;;13.85;8.70;;;7.00;99.90;;;;;;4935949;29;20217;-47
2020/12/07 08:58:33;;;;;;;13.88;8.00;;;7.00;99.90;;;;;;4936236;29;20177;-47
2020/12/07 09:01:01;;;;;;;17.27;8.95;;;7.10;99.90;;;;;;4936666;29;20192;-43
2020/12/07 09:03:29;;;;;;;13.10;9.80;;;7.10;99.90;;;;;;4936469;29;20191;-47
2020/12/07 09:05:56;;;;;;;7.53;6.40;;;7.10;99.90;;;;;;4934814;29;20208;-45
2020/12/07 09:08:25;;;;;;;10.45;8.05;;;7.10;99.90;;;;;;4936341;29;20636;-50
2020/12/07 09:10:53;;;;;;;11.63;9.13;;;7.30;99.90;;;;;;4935682;29;20263;-45
2020/12/07 09:13:20;;;;;;;17.02;8.48;;;7.30;99.90;;;;;;4936287;29;20296;-46
2020/12/07 09:15:47;;;;;;;11.57;8.15;;;7.30;99.90;;;;;;4935525;29;20271;-50
2020/12/07 09:18:14;;;;;;;16.60;9.45;;;7.30;99.90;;;;;;4934962;29;20188;-42
2020/12/07 09:20:41;;;;;;;8.25;5.82;;;7.40;99.90;;;;;;4935487;29;20208;-49
2020/12/07 09:23:09;;;;;;;11.00;7.85;;;7.40;99.90;;;;;;4935441;29;20203;-43
2020/12/07 09:25:37;;;;;;;12.73;8.25;;;7.50;99.90;;;;;;4935628;29;20300;-46
2020/12/07 09:28:04;;;;;;;16.25;10.27;;;7.50;99.90;;;;;;4935854;29;20557;-44
2020/12/07 09:30:32;;;;;;;15.68;9.73;;;7.50;99.90;;;;;;4935851;29;20177;-49
2020/12/07 09:32:59;;;;;;;10.60;7.50;;;7.50;99.90;;;;;;4935457;29;20181;-47
2020/12/07 09:35:27;;;;;;;10.45;7.82;;;7.50;99.90;;;;;;4935445;29;20221;-44
2020/12/07 09:37:54;;;;;;;13.20;8.88;;;7.60;99.90;;;;;;4935372;29;20180;-49
2020/12/07 09:40:21;;;;;;;11.02;9.48;;;7.60;99.90;;;;;;4936485;29;20559;-44
2020/12/07 09:42:49;;;;;;;13.30;8.30;;;7.50;99.90;;;;;;4935538;29;20181;-48
2020/12/07 09:45:16;;;;;;;13.10;7.68;;;7.50;99.90;;;;;;4935384;29;20228;-42
2020/12/07 09:47:43;;;;;;;14.05;8.07;;;7.50;99.90;;;;;;4935842;29;20557;-43
2020/12/07 09:50:10;;;;;;;12.80;6.22;;;7.50;99.90;;;;;;4935411;29;20551;-46
2020/12/07 09:52:37;;;;;;;12.75;8.43;;;7.40;99.90;;;;;;4935570;29;20195;-42
2020/12/07 09:55:05;;;;;;;18.60;10.10;;;7.40;99.90;;;;;;4935275;29;20761;-46
2020/12/07 09:57:33;;;;;;;14.23;9.70;;;7.40;99.90;;;;;;4935241;29;20196;-49
2020/12/07 10:00:01;;;;;;;15.07;9.60;;;7.40;99.90;;;;;;4935044;29;20230;-43
2020/12/07 10:02:31;;;;;;;8.20;6.80;;;7.40;99.90;;;;;;4937723;29;20200;-47
2020/12/07 10:04:58;;;;;;;12.63;10.20;;;7.50;99.90;;;;;;4938732;29;20220;-43
2020/12/07 10:07:25;;;;;;;15.93;7.55;;;7.50;99.90;;;;;;4939352;29;20526;-46
2020/12/07 10:09:52;;;;;;;12.73;8.32;;;7.40;99.90;;;;;;4939397;29;20523;-45
2020/12/07 10:12:19;;;;;;;16.90;8.20;;;7.50;99.90;;;;;;4939652;29;20181;-44
2020/12/07 10:14:47;;;;;;;11.95;6.47;;;7.40;99.90;;;;;;4939390;29;20208;-50
2020/12/07 10:17:14;;;;;;;8.07;7.25;;;7.40;99.90;;;;;;4938894;29;20228;-45
2020/12/07 10:19:42;;;;;;;10.00;7.68;;;7.40;99.90;;;;;;4938944;29;20185;-44
2020/12/07 10:22:09;;;;;;;12.48;8.85;;;7.50;99.90;;;;;;4939117;29;20650;-44
2020/12/07 10:24:36;;;;;;;12.07;8.95;;;7.50;99.90;;;;;;4938196;29;20188;-43
2020/12/07 10:27:03;;;;;;;15.68;8.10;;;7.60;99.90;;;;;;4940252;29;20193;-48
2020/12/07 10:29:30;;;;;;;10.32;7.88;;;7.60;99.90;;;;;;4939374;29;20200;-43
2020/12/07 10:31:57;;;;;;;13.65;7.82;;;7.60;99.90;;;;;;4938691;29;20185;-45
2020/12/07 10:34:25;;;;;;;12.85;8.30;;;7.60;99.90;;;;;;4938919;29;20180;-45
2020/12/07 10:36:53;;;;;;;8.80;7.53;;;7.50;99.90;;;;;;4939020;29;20698;-45
2020/12/07 10:39:24;;;;;;;8.70;7.03;;;7.50;99.90;;;;;;4938851;29;20247;-46
2020/12/07 10:41:52;;;;;;;11.45;8.23;;;7.60;99.90;;;;;;4938892;29;20281;-52
2020/12/07 10:44:19;;;;;;;11.20;9.38;;;7.60;99.90;;;;;;4939580;29;20265;-45
2020/12/07 10:46:49;;;;;;;12.63;8.07;;;7.60;99.90;;;;;;4938475;29;20177;-48
2020/12/07 10:49:16;;;;;;;14.77;7.70;;;7.60;99.90;;;;;;4938924;29;20197;-44
2020/12/07 10:51:47;;;;;;;14.00;9.63;;;7.70;99.90;;;;;;4938888;29;20197;-46
2020/12/07 10:54:14;;;;;;;13.32;9.63;;;7.70;99.90;;;;;;4937597;29;20619;-44
2020/12/07 10:56:45;;;;;;;16.38;9.25;;;7.80;99.90;;;;;;4938241;29;20224;-45
2020/12/07 10:59:12;;;;;;;10.13;7.13;;;7.70;99.90;;;;;;4938803;29;20192;-45
2020/12/07 11:01:40;;;;;;;15.10;8.50;;;7.80;99.90;;;;;;4938455;29;20203;-44
2020/12/07 11:04:07;;;;;;;11.20;8.63;;;7.80;99.90;;;;;;4937933;29;20288;-43
2020/12/07 11:06:37;;;;;;;13.02;8.02;;;7.80;99.90;;;;;;4938670;29;20752;-43
2020/12/07 11:09:09;;;;;;;12.13;7.85;;;7.80;99.90;;;;;;4938747;29;20195;-47
2020/12/07 11:11:36;;;;;;;16.73;9.40;;;7.80;99.90;;;;;;4939303;29;20227;-49
2020/12/07 11:14:04;;;;;;;10.10;8.13;;;7.90;99.90;;;;;;4938195;29;20224;-42
2020/12/07 11:16:32;;;;;;;12.65;9.07;;;7.90;99.90;;;;;;4938204;29;20269;-44
2020/12/07 11:18:59;;;;;;;14.85;9.80;;;7.90;99.90;;;;;;4939027;29;20200;-46
2020/12/07 11:21:26;;;;;;;11.45;8.38;;;7.90;99.90;;;;;;4940308;29;20298;-42
2020/12/07 11:23:53;;;;;;;11.25;9.07;;;7.90;99.90;;;;;;4939616;29;20280;-54
2020/12/07 11:26:22;;;;;;;20.30;8.20;;;7.90;99.90;;;;;;4954852;23;20216;-58
2020/12/07 11:28:49;;;;;;;12.60;8.15;;;7.90;99.90;;;;;;4955010;28;20282;-58
2020/12/07 11:31:17;;;;;;;15.18;9.02;;;7.80;99.90;;;;;;4955582;28;20188;-58
2020/12/07 11:33:45;;;;;;;12.82;9.25;;;7.80;99.90;;;;;;4956382;28;20172;-59
2020/12/07 11:36:16;;;;;;;13.77;9.18;;;7.80;99.90;;;;;;4955958;28;20216;-56
2020/12/07 11:38:53;;;;;;;11.93;8.77;;;7.80;99.90;;;;;;4955371;29;20641;-60
2020/12/07 11:41:33;;;;;;;13.85;8.98;;;7.90;99.90;;;;;;4955811;29;20184;-55
2020/12/07 11:44:09;;;;;;;16.35;10.10;;;7.90;99.90;;;;;;4955499;29;20183;-58
2020/12/07 11:46:39;;;;;;;15.02;9.93;;;7.90;99.90;;;;;;4954121;28;20699;-54
2020/12/07 11:49:06;;;;;;;11.40;8.18;;;7.90;99.90;;;;;;4955198;28;20188;-60
2020/12/07 11:51:35;;;;;;;13.50;10.23;;;8.00;99.90;;;;;;4953695;28;20192;-60
2020/12/07 11:54:02;;;;;;;14.68;10.48;;;8.00;99.90;;;;;;4953982;28;20196;-58
2020/12/07 11:56:31;;;;;;;15.85;9.27;;;8.00;99.90;;;;;;4954969;28;20294;-55
2020/12/07 11:58:59;;;;;;;17.73;11.73;;;8.10;99.90;;;;;;4953940;28;20180;-60
2020/12/07 12:01:26;;;;;;;18.63;13.00;;;8.20;99.90;;;;;;4953521;28;20708;-56
2020/12/07 12:03:53;;;;;;;17.08;11.27;;;8.20;99.90;;;;;;4954666;28;20191;-59
2020/12/07 12:06:25;;;;;;;11.63;8.40;;;8.20;99.90;;;;;;4954730;28;20208;-58
2020/12/07 12:08:53;;;;;;;14.10;7.90;;;8.20;99.90;;;;;;4954954;28;20295;-57
2020/12/07 12:11:20;;;;;;;11.77;9.45;;;8.30;99.90;;;;;;4954809;29;20235;-54
2020/12/07 12:13:48;;;;;;;13.95;9.68;;;8.20;99.90;;;;;;4954938;28;20203;-56
2020/12/07 12:16:15;;;;;;;11.40;9.30;;;8.20;99.90;;;;;;4953808;28;20596;-54
2020/12/07 12:18:59;;;;;;;10.48;7.72;;;8.30;99.90;;;;;;4954264;29;20180;-58
2020/12/07 12:21:28;;;;;;;11.07;7.95;;;8.30;99.90;;;;;;4954624;28;20188;-60
2020/12/07 12:23:56;;;;;;;12.32;8.73;;;8.40;99.90;;;;;;4953232;28;20250;-54
2020/12/07 12:26:23;;;;;;;10.90;8.57;;;8.40;99.90;;;;;;4954121;28;20204;-59
2020/12/07 12:28:52;;;;;;;9.48;8.05;;;8.40;99.90;;;;;;4953947;28;20251;-58
2020/12/07 12:31:19;;;;;;;13.68;9.18;;;8.30;99.90;;;;;;4953929;28;20188;-59
2020/12/07 12:33:47;;;;;;;13.07;9.02;;;8.30;99.90;;;;;;4954059;28;20191;-55
2020/12/07 12:36:17;;;;;;;12.30;7.70;;;8.30;99.90;;;;;;4953972;28;20219;-57
2020/12/07 12:38:44;;;;;;;12.95;8.57;;;8.30;99.90;;;;;;4954163;29;20188;-54
2020/12/07 12:41:11;;;;;;;12.23;7.75;;;8.30;99.90;;;;;;4953843;28;20195;-60
2020/12/07 12:43:39;;;;;;;11.35;8.27;;;8.20;99.90;;;;;;4954112;29;20212;-57
2020/12/07 12:46:07;;;;;;;15.02;11.82;;;8.20;99.90;;;;;;4953397;28;20227;-56
2020/12/07 12:48:36;;;;;;;17.50;9.73;;;8.20;99.90;;;;;;4953948;28;20199;-58
2020/12/07 12:51:03;;;;;;;11.25;9.05;;;8.20;99.90;;;;;;4953972;28;20184;-57
2020/12/07 12:53:31;;;;;;;11.80;8.93;;;8.10;99.90;;;;;;4952258;29;20203;-57
2020/12/07 12:55:58;;;;;;;10.15;8.73;;;8.10;99.90;;;;;;4953079;28;20630;-59
2020/12/07 12:58:25;;;;;;;15.93;10.38;;;8.10;99.90;;;;;;4953059;28;20583;-58
2020/12/07 13:00:53;;;;;;;14.88;8.90;;;8.00;99.90;;;;;;4953672;28;20199;-61
2020/12/07 13:03:21;;;;;;;13.10;8.75;;;7.90;99.90;;;;;;4953874;29;20641;-59
2020/12/07 13:05:48;;;;;;;13.88;9.57;;;7.90;99.90;;;;;;4953471;28;20215;-60
2020/12/07 13:08:17;;;;;;;13.35;9.65;;;7.80;99.90;;;;;;4952338;28;20188;-58
2020/12/07 13:10:45;;;;;;;10.80;8.27;;;7.90;99.90;;;;;;4953143;28;20188;-58
2020/12/07 13:13:12;;;;;;;15.23;7.80;;;7.80;99.90;;;;;;4953559;28;20420;-57
2020/12/07 13:15:46;;;;;;;11.88;8.43;;;7.80;99.90;;;;;;4954377;28;20266;-61
2020/12/07 13:18:13;;;;;;;18.80;11.10;;;7.70;99.90;;;;;;4953163;29;20553;-58
2020/12/07 13:20:45;;;;;;;8.25;7.03;;;7.70;99.90;;;;;;4953427;28;20189;-58
2020/12/07 13:23:18;;;;;;;13.48;9.40;;;7.60;99.90;;;;;;4952882;29;20572;-57
2020/12/07 13:25:54;;;;;;;16.15;10.07;;;7.60;99.90;;;;;;4954075;28;20219;-59
2020/12/07 13:28:21;;;;;;;10.88;6.57;;;7.60;99.90;;;;;;4953141;28;20246;-53